Redford, Texas
Current Conditions -  °F | °C
As of 11:15 PM on Friday 19 Dec 2014 (Local Time) from KPRS Reporting Station
Clear Clear  
Wind Chill: 45°   Ceiling: Unl
Heat Index: 49°   Visibility: 10mi
Dew Point: 31°   Wind: 8mph
Humidity: 50%   Direction: 360°N
Pressure: 30.14"   Gusts: NA
Location:  29.45°N, 104.19°W
Report Text: KPRS 200515Z AUTO 36007KT 10SM CLR 09/M01 A3014 RMK AO2 T00931006
Loading
Personal Weather Stations






























Interactive Weather Map New forecast layout! Learn more

10-Day Weather Forecast

Advertisements
Track Severe Weather on mobile